Time;durP1;ratioP1;P1;durP2;ratioP2;P2;SDS_P1;SDS_P2;PMS_P1;PMS_P2;Temp;Humidity;BMP_temperature;BMP_pressure;BME280_temperature;BME280_humidity;BME280_pressure;Samples;Min_cycle;Max_cycle;Signal;HPM_P1;HPM_P2
2023/01/31 00:00:27;;;;;;;0.30;0.30;;;;;;;2.32;92.96;101817.69;10567577;28;20123;-82
2023/01/31 00:05:32;;;;;;;0.30;0.30;;;;;;;2.28;93.26;101821.72;10569570;28;20335;-82
2023/01/31 00:10:45;;;;;;;3.95;1.55;;;;;;;2.28;93.36;101819.16;10588792;27;20078;-82
2023/01/31 00:15:58;;;;;;;11.15;1.73;;;;;;;2.36;93.79;101832.59;10570548;28;20066;-82
2023/01/31 00:21:30;;;;;;;3.63;1.42;;;;;;;2.44;93.77;101828.84;10571679;28;20036;-82
2023/01/31 00:26:33;;;;;;;8.93;0.32;;;;;;;2.45;94.13;101822.88;10555716;28;20119;-82
2023/01/31 00:31:41;;;;;;;0.57;0.47;;;;;;;2.44;94.34;101821.97;10568381;28;20487;-82
2023/01/31 00:36:46;;;;;;;0.80;0.55;;;;;;;2.47;94.60;101822.16;10568641;28;20044;-82
2023/01/31 00:42:02;;;;;;;0.40;0.30;;;;;;;2.52;94.51;101809.53;10553908;27;20031;-82
2023/01/31 00:47:24;;;;;;;0.15;0.15;;;;;;;2.61;94.75;101799.84;10574311;28;20062;-81
2023/01/31 00:52:29;;;;;;;0.82;0.80;;;;;;;2.69;94.93;101814.94;10565803;28;20074;-81
2023/01/31 00:57:33;;;;;;;0.43;0.22;;;;;;;2.74;95.01;101805.81;10563379;28;20101;-81
2023/01/31 01:02:35;;;;;;;0.32;0.32;;;;;;;2.76;95.14;101812.88;10561232;28;20044;-81
2023/01/31 01:07:38;;;;;;;0.20;0.20;;;;;;;2.81;95.20;101808.00;10546242;28;20058;-81
2023/01/31 01:12:39;;;;;;;0.77;0.63;;;;;;;2.75;95.32;101803.31;10566583;27;20043;-80
2023/01/31 01:17:41;;;;;;;0.10;0.10;;;;;;;2.70;95.36;101798.63;10560118;28;20051;-81
2023/01/31 01:22:42;;;;;;;2.35;1.58;;;;;;;2.65;95.87;101790.56;10577580;28;20058;-81
2023/01/31 01:27:44;;;;;;;3.00;0.40;;;;;;;2.57;95.58;101808.19;10580276;28;20744;-81
2023/01/31 01:32:47;;;;;;;1.00;0.77;;;;;;;2.55;95.85;101794.25;10563788;28;20035;-81
2023/01/31 01:37:49;;;;;;;3.70;1.45;;;;;;;2.59;95.82;101801.41;10547414;28;20036;-81
2023/01/31 01:42:53;;;;;;;0.75;0.47;;;;;;;2.62;96.04;101804.19;10509153;28;20057;-81
2023/01/31 01:48:02;;;;;;;0.47;0.47;;;;;;;2.68;96.11;101820.91;10545495;28;20044;-81
2023/01/31 01:53:20;;;;;;;0.60;0.57;;;;;;;2.65;96.33;101817.31;10578424;27;20043;-82
2023/01/31 01:58:35;;;;;;;2.28;0.35;;;;;;;2.69;96.26;101813.25;10614881;27;20107;-82
2023/01/31 02:03:39;;;;;;;0.77;0.65;;;;;;;2.69;96.42;101817.53;10583596;27;20461;-82
2023/01/31 02:08:49;;;;;;;0.20;0.20;;;;;;;2.73;96.14;101820.44;10605685;27;20074;-83
2023/01/31 02:14:18;;;;;;;0.15;0.15;;;;;;;2.70;96.43;101829.66;10607161;27;20043;-82
2023/01/31 02:20:03;;;;;;;0.25;0.25;;;;;;;2.63;96.27;101826.69;10565291;28;20039;-82
2023/01/31 02:25:43;;;;;;;0.25;0.25;;;;;;;2.59;96.27;101835.03;10559596;28;20040;-83
2023/01/31 02:31:01;;;;;;;0.40;0.40;;;;;;;2.48;96.09;101836.00;10546652;28;20044;-82
2023/01/31 02:36:23;;;;;;;0.25;0.25;;;;;;;2.38;95.98;101841.38;10549842;28;20031;-83
2023/01/31 02:41:49;;;;;;;0.15;0.15;;;;;;;2.30;96.14;101828.81;10563577;28;20048;-83
2023/01/31 02:47:30;;;;;;;0.20;0.20;;;;;;;2.27;95.85;101823.44;10563987;28;20036;-83
2023/01/31 02:52:54;;;;;;;5.05;0.57;;;;;;;2.21;95.75;101815.28;10569363;28;20169;-83
2023/01/31 02:58:11;;;;;;;0.10;0.10;;;;;;;2.16;95.80;101808.88;10582066;27;20061;-84
2023/01/31 03:03:52;;;;;;;4.75;0.75;;;;;;;2.12;95.75;101801.75;10610166;27;20126;-83
2023/01/31 03:09:37;;;;;;;0.28;0.28;;;;;;;2.12;95.56;101796.56;10587147;27;20038;-84
2023/01/31 03:15:12;;;;;;;0.63;0.50;;;;;;;2.07;95.67;101782.44;10588425;27;20139;-84
2023/01/31 03:21:13;;;;;;;1.48;0.85;;;;;;;2.07;95.48;101788.50;10583864;27;20415;-84
2023/01/31 03:27:00;;;;;;;0.33;0.33;;;;;;;2.10;95.50;101777.47;10615137;27;20019;-83
2023/01/31 03:32:31;;;;;;;0.20;0.20;;;;;;;2.10;95.51;101775.78;10595910;27;20389;-85
2023/01/31 03:37:55;;;;;;;0.20;0.20;;;;;;;2.08;95.32;101759.28;10575027;27;20043;-84
2023/01/31 03:43:21;;;;;;;0.10;0.10;;;;;;;2.09;95.45;101765.34;10612707;27;20511;-84
2023/01/31 03:48:34;;;;;;;0.57;0.30;;;;;;;2.15;95.40;101758.00;10575524;27;20039;-84
2023/01/31 03:53:42;;;;;;;0.30;0.30;;;;;;;2.20;95.28;101769.53;10611033;27;20069;-85
2023/01/31 03:58:49;;;;;;;;;;;;;;;2.25;95.11;101770.75;10592646;27;20042;-85
2023/01/31 04:04:00;;;;;;;0.30;0.22;;;;;;;2.27;94.85;101776.91;10591364;27;19919;-85
2023/01/31 04:09:03;;;;;;;0.20;0.20;;;;;;;2.29;94.89;101775.31;10591554;27;20043;-85
2023/01/31 04:14:07;;;;;;;0.60;0.50;;;;;;;2.26;94.94;101771.66;10573879;27;20074;-85
2023/01/31 04:19:09;;;;;;;0.10;0.10;;;;;;;2.20;94.75;101766.97;10590855;27;20035;-86
2023/01/31 04:24:12;;;;;;;0.70;0.70;;;;;;;2.19;94.93;101756.53;10546422;28;20511;-85
2023/01/31 04:29:16;;;;;;;0.10;0.10;;;;;;;2.19;94.60;101761.69;10549100;28;20419;-85
2023/01/31 04:34:18;;;;;;;0.10;0.10;;;;;;;2.17;94.76;101742.63;10567341;28;20043;-86
2023/01/31 04:39:19;;;;;;;1.35;0.85;;;;;;;2.14;94.99;101743.28;10599786;27;20092;-85
2023/01/31 04:44:21;;;;;;;0.10;0.10;;;;;;;2.14;94.53;101739.81;10572154;27;20044;-86
2023/01/31 04:49:23;;;;;;;1.55;0.88;;;;;;;2.11;94.48;101740.50;10546844;28;20047;-87
2023/01/31 04:54:25;;;;;;;1.10;0.77;;;;;;;2.15;94.57;101732.19;10546327;28;20044;-85
2023/01/31 04:59:29;;;;;;;0.98;0.80;;;;;;;2.19;94.60;101726.41;10576611;27;20103;-86
2023/01/31 05:04:31;;;;;;;0.10;0.10;;;;;;;2.20;94.53;101725.59;10569356;27;20057;-85
2023/01/31 05:09:33;;;;;;;0.90;0.63;;;;;;;2.25;94.48;101713.91;10564669;28;20082;-86
2023/01/31 05:14:34;;;;;;;0.10;0.10;;;;;;;2.29;94.44;101702.94;10565660;28;20043;-86
2023/01/31 05:19:36;;;;;;;3.88;1.38;;;;;;;2.35;94.32;101689.53;10563338;28;20059;-85
2023/01/31 05:24:38;;;;;;;0.20;0.20;;;;;;;2.35;94.45;101686.06;10565433;28;20048;-85
2023/01/31 05:29:41;;;;;;;0.80;0.65;;;;;;;2.37;94.33;101684.47;10585629;27;20526;-86
2023/01/31 05:34:42;;;;;;;0.10;0.10;;;;;;;2.44;94.10;101687.53;10608176;27;20452;-85
2023/01/31 05:39:44;;;;;;;0.00;0.00;;;;;;;2.54;94.34;101689.03;10607969;27;20137;-86
2023/01/31 05:44:46;;;;;;;1.92;0.90;;;;;;;2.60;94.14;101692.00;10586960;27;20047;-85
2023/01/31 05:49:47;;;;;;;0.28;0.28;;;;;;;2.69;94.23;101676.19;10607804;27;20131;-85
2023/01/31 05:54:49;;;;;;;0.80;0.80;;;;;;;2.75;94.35;101667.94;10609262;27;20043;-85
2023/01/31 05:59:51;;;;;;;0.50;0.47;;;;;;;2.80;94.05;101669.09;10589201;27;20047;-85
2023/01/31 06:04:52;;;;;;;1.40;0.70;;;;;;;2.83;94.38;101665.00;10571538;27;20051;-84
2023/01/31 06:09:54;;;;;;;3.25;1.10;;;;;;;2.87;93.55;101662.59;10605534;27;20039;-86
2023/01/31 06:14:56;;;;;;;2.38;0.88;;;;;;;2.92;93.98;101656.91;10608305;27;20035;-85
2023/01/31 06:19:57;;;;;;;0.20;0.20;;;;;;;2.94;93.98;101638.91;10587953;27;20035;-85
2023/01/31 06:24:59;;;;;;;1.95;1.33;;;;;;;2.98;94.07;101639.19;10606812;27;20198;-86
2023/01/31 06:30:01;;;;;;;0.20;0.20;;;;;;;3.04;94.15;101635.22;10587238;27;20031;-85
2023/01/31 06:35:03;;;;;;;1.08;0.57;;;;;;;3.07;94.14;101625.03;10606188;27;20043;-85
2023/01/31 06:40:05;;;;;;;0.98;0.55;;;;;;;3.11;94.10;101620.13;10607100;27;20206;-86
2023/01/31 06:45:08;;;;;;;1.45;0.68;;;;;;;3.15;94.14;101609.19;10606377;28;20039;-84
2023/01/31 06:50:11;;;;;;;0.60;0.60;;;;;;;3.15;94.21;101588.47;10565004;27;20031;-85
2023/01/31 06:55:12;;;;;;;0.30;0.30;;;;;;;3.17;94.12;101586.84;10598308;28;20050;-85
2023/01/31 07:00:15;;;;;;;0.77;0.57;;;;;;;3.25;94.20;101583.84;10602474;28;20046;-85
2023/01/31 07:05:18;;;;;;;4.75;1.15;;;;;;;3.29;94.24;101578.06;10589263;28;20055;-85
2023/01/31 07:10:20;;;;;;;1.92;1.40;;;;;;;3.34;94.55;101568.84;10605591;28;20031;-85
2023/01/31 07:15:21;;;;;;;0.20;0.20;;;;;;;3.39;94.35;101562.22;10618926;28;20039;-85
2023/01/31 07:20:23;;;;;;;4.15;0.60;;;;;;;3.47;94.38;101554.94;10583928;27;20486;-87
2023/01/31 07:25:26;;;;;;;1.40;0.98;;;;;;;3.54;94.33;101549.28;10579057;28;20422;-87
2023/01/31 07:30:28;;;;;;;0.43;0.43;;;;;;;3.57;94.13;101535.63;10597878;28;20046;-87
2023/01/31 07:35:30;;;;;;;0.52;0.52;;;;;;;3.63;94.44;101516.13;10597860;28;20070;-87
2023/01/31 07:40:32;;;;;;;1.80;0.77;;;;;;;3.70;94.28;101517.41;10591998;27;20035;-85
2023/01/31 07:45:34;;;;;;;0.52;0.52;;;;;;;3.76;94.02;101506.50;10594503;27;20099;-85
2023/01/31 07:50:36;;;;;;;1.02;0.93;;;;;;;3.81;94.06;101497.28;10593404;27;20051;-85
2023/01/31 07:55:38;;;;;;;5.28;1.23;;;;;;;3.84;94.07;101497.44;10595590;27;20503;-87
2023/01/31 08:06:11;;;;;;;2.03;0.82;;;;;;;3.90;93.87;101471.88;10614575;27;20053;-84
2023/01/31 08:11:13;;;;;;;8.73;1.92;;;;;;;3.91;93.91;101460.72;10594280;27;20364;-84
2023/01/31 08:16:15;;;;;;;4.68;1.35;;;;;;;3.91;94.07;101460.72;10593799;27;20054;-86
2023/01/31 08:21:18;;;;;;;4.10;2.13;;;;;;;3.94;94.10;101449.63;10615537;27;20042;-85
2023/01/31 08:26:21;;;;;;;4.15;1.70;;;;;;;3.97;94.24;101418.69;10598810;27;20130;-85
2023/01/31 08:31:25;;;;;;;1.70;1.08;;;;;;;3.98;94.24;101405.81;10602351;27;20059;-85
2023/01/31 08:36:30;;;;;;;3.20;0.90;;;;;;;4.04;94.26;101400.97;10618895;27;20261;-84
2023/01/31 08:41:33;;;;;;;11.00;0.85;;;;;;;4.07;94.36;101398.53;10615921;27;20039;-85
2023/01/31 08:46:36;;;;;;;2.85;1.10;;;;;;;4.12;94.40;101410.84;10614112;27;20069;-84
2023/01/31 08:51:38;;;;;;;2.92;2.00;;;;;;;4.12;94.36;101403.06;10618521;27;20049;-85
2023/01/31 08:56:40;;;;;;;2.20;0.98;;;;;;;4.18;94.34;101387.84;10616110;27;20043;-86
2023/01/31 09:01:45;;;;;;;1.88;1.55;;;;;;;4.24;94.44;101382.97;10593153;27;20062;-85
2023/01/31 09:06:47;;;;;;;1.95;1.02;;;;;;;4.24;94.36;101398.53;10612984;27;20043;-84
2023/01/31 09:11:50;;;;;;;0.73;0.68;;;;;;;4.24;94.65;101385.56;10621876;27;20043;-84
2023/01/31 09:17:02;;;;;;;11.10;3.38;;;;;;;4.22;94.54;101392.38;10602964;27;20043;-83
2023/01/31 09:22:21;;;;;;;2.75;1.42;;;;;;;4.22;94.66;101389.78;10590668;27;20051;-82
2023/01/31 09:27:23;;;;;;;3.70;1.95;;;;;;;4.25;94.89;101385.66;10626605;27;20051;-82
2023/01/31 09:32:25;;;;;;;2.80;1.15;;;;;;;4.27;95.22;101383.13;10593366;27;20088;-82
2023/01/31 09:37:30;;;;;;;0.98;0.50;;;;;;;4.32;95.36;101375.59;10597870;27;20061;-82
2023/01/31 09:42:42;;;;;;;2.45;0.95;;;;;;;4.34;95.41;101369.69;10607437;27;20038;-82
2023/01/31 09:47:53;;;;;;;4.88;2.60;;;;;;;4.36;95.64;101368.06;10582581;27;20046;-83
2023/01/31 09:53:02;;;;;;;1.55;1.00;;;;;;;4.43;95.69;101344.22;10594227;27;20061;-81
2023/01/31 09:58:17;;;;;;;2.92;1.27;;;;;;;4.56;95.77;101339.66;10587592;27;20122;-82
2023/01/31 10:03:33;;;;;;;1.00;0.52;;;;;;;4.65;95.78;101337.50;10605064;27;20043;-82
2023/01/31 10:08:54;;;;;;;0.57;0.57;;;;;;;4.73;95.80;101318.03;10567756;27;20070;-82
2023/01/31 10:14:03;;;;;;;0.80;0.55;;;;;;;4.79;95.82;101309.69;10624374;27;20053;-82
2023/01/31 10:19:15;;;;;;;3.42;0.88;;;;;;;4.84;95.76;101315.09;10604377;27;20839;-82
2023/01/31 10:24:44;;;;;;;1.23;0.75;;;;;;;4.90;95.68;101313.66;10590034;27;20039;-82
2023/01/31 10:29:56;;;;;;;2.08;1.02;;;;;;;4.94;95.62;101301.75;10618200;27;20027;-83
2023/01/31 10:35:06;;;;;;;1.65;1.20;;;;;;;4.94;95.52;101301.75;10602373;27;20053;-84
2023/01/31 10:40:28;;;;;;;1.27;0.73;;;;;;;5.00;95.36;101316.69;10601874;27;20103;-83
2023/01/31 10:45:37;;;;;;;1.73;0.75;;;;;;;5.03;95.32;101312.56;10606138;28;20824;-85
2023/01/31 10:51:00;;;;;;;5.85;1.45;;;;;;;5.05;95.31;101310.91;10599443;28;20039;-84
2023/01/31 10:56:31;;;;;;;9.63;1.92;;;;;;;5.10;95.18;101295.56;10607791;28;20075;-84
2023/01/31 11:01:37;;;;;;;1.52;1.17;;;;;;;5.17;95.15;101288.97;10592210;28;20096;-84
2023/01/31 11:06:53;;;;;;;;;;;;;;;;;;;;;
2023/01/31 11:13:08;;;;;;;1.67;0.68;;;;;;;5.16;95.41;101290.66;10590319;27;20042;-83
2023/01/31 11:18:48;;;;;;;2.07;1.00;;;;;;;5.07;95.58;101270.34;10564564;27;20138;-82
2023/01/31 11:24:01;;;;;;;0.40;0.40;;;;;;;5.02;95.99;101287.41;10606120;27;20128;-81
2023/01/31 11:29:15;;;;;;;2.55;1.20;;;;;;;5.01;96.18;101276.97;10623980;27;20039;-80
2023/01/31 11:34:26;;;;;;;1.02;0.57;;;;;;;4.99;96.38;101260.44;10611753;27;20061;-81
2023/01/31 11:39:37;;;;;;;0.60;0.60;;;;;;;5.03;96.81;101254.56;10611206;27;20080;-80
2023/01/31 11:44:55;;;;;;;1.30;0.88;;;;;;;5.03;96.86;101263.25;10630660;27;20498;-80
2023/01/31 11:50:00;;;;;;;2.50;0.93;;;;;;;5.03;97.17;101263.25;10623124;27;20035;-80
2023/01/31 11:55:17;;;;;;;3.40;1.02;;;;;;;5.03;97.32;101257.16;10599884;27;20054;-81
2023/01/31 12:00:21;;;;;;;0.55;0.55;;;;;;;5.02;97.63;101251.06;10631070;27;20281;-79
2023/01/31 12:05:36;;;;;;;2.75;0.95;;;;;;;5.04;97.82;101257.22;10627446;27;20100;-80
2023/01/31 12:10:44;;;;;;;0.35;0.35;;;;;;;5.08;98.07;101248.75;10631546;27;20491;-82
2023/01/31 12:15:57;;;;;;;3.72;1.02;;;;;;;5.15;98.07;101252.56;10609609;27;20508;-80
2023/01/31 12:21:21;;;;;;;3.65;0.98;;;;;;;5.21;98.35;101249.31;10605650;27;20073;-80
2023/01/31 12:26:42;;;;;;;0.32;0.30;;;;;;;5.27;98.41;101228.88;10613986;27;20053;-82
2023/01/31 12:31:57;;;;;;;0.35;0.35;;;;;;;5.30;98.74;101229.00;10633232;27;20050;-82
2023/01/31 12:37:22;;;;;;;0.50;0.50;;;;;;;5.35;98.64;101216.22;10624217;27;20077;-80
2023/01/31 12:42:53;;;;;;;0.38;0.38;;;;;;;5.38;98.87;101201.66;10610349;27;20043;-80
2023/01/31 12:48:21;;;;;;;0.55;0.35;;;;;;;5.44;98.78;101201.06;10602912;27;20050;-81
2023/01/31 12:54:03;;;;;;;1.52;0.98;;;;;;;5.55;99.06;101197.19;10586835;27;20053;-80
2023/01/31 12:59:29;;;;;;;1.05;0.38;;;;;;;5.58;99.09;101212.91;10614930;27;20047;-81
2023/01/31 13:04:53;;;;;;;0.10;0.10;;;;;;;5.58;99.24;101196.47;10592301;27;20043;-81
2023/01/31 13:10:36;;;;;;;0.20;0.20;;;;;;;5.57;99.16;101197.28;10598675;27;20051;-82
2023/01/31 13:15:54;;;;;;;0.30;0.22;;;;;;;5.58;99.51;101188.66;10609280;27;20051;-82
2023/01/31 13:21:16;;;;;;;0.90;0.55;;;;;;;5.60;99.32;101172.34;10612272;27;20049;-82
2023/01/31 13:26:37;;;;;;;0.30;0.30;;;;;;;5.62;99.37;101169.81;10599267;27;20039;-81
2023/01/31 13:32:42;;;;;;;0.40;0.38;;;;;;;5.66;99.48;101161.31;10603940;27;20056;-83
2023/01/31 13:38:44;;;;;;;0.15;0.15;;;;;;;5.74;99.55;101159.06;10568341;27;20035;-82
2023/01/31 13:44:15;;;;;;;0.30;0.30;;;;;;;5.81;99.44;101146.38;10593730;27;20058;-83
2023/01/31 13:49:28;;;;;;;1.25;0.95;;;;;;;5.86;99.36;101151.75;10572441;27;20043;-84
2023/01/31 13:54:56;;;;;;;0.22;0.22;;;;;;;5.89;99.44;101166.59;10596243;27;20039;-85
2023/01/31 14:00:23;;;;;;;1.25;0.75;;;;;;;5.94;99.36;101170.28;10555600;27;20039;-85
2023/01/31 14:06:04;;;;;;;5.70;0.85;;;;;;;5.98;99.08;101154.03;10584582;27;20592;-83
2023/01/31 14:11:20;;;;;;;2.60;1.80;;;;;;;6.00;98.77;101180.97;10594264;27;20047;-81
2023/01/31 14:16:49;;;;;;;1.63;0.65;;;;;;;6.03;99.02;101173.28;10580104;27;20134;-81
2023/01/31 14:22:07;;;;;;;1.02;0.90;;;;;;;6.07;98.83;101172.59;10607641;27;20955;-81
2023/01/31 14:28:08;;;;;;;2.13;1.15;;;;;;;6.08;98.88;101176.06;10584075;27;20043;-80
2023/01/31 14:33:51;;;;;;;2.10;0.93;;;;;;;6.13;98.79;101182.38;10581731;27;20130;-81
2023/01/31 14:39:40;;;;;;;1.90;1.30;;;;;;;6.17;98.62;101173.84;10577655;27;20039;-82
2023/01/31 14:45:54;;;;;;;0.30;0.30;;;;;;;6.19;98.26;101174.81;10589029;28;20352;-83
2023/01/31 14:52:11;;;;;;;3.53;1.50;;;;;;;6.28;98.26;101190.78;10553418;28;20043;-82
2023/01/31 14:58:03;;;;;;;2.25;0.98;;;;;;;6.34;98.10;101175.44;10549436;27;20039;-82
2023/01/31 15:03:39;;;;;;;1.45;0.35;;;;;;;6.49;97.71;101174.28;10541727;28;20130;-80
2023/01/31 15:09:14;;;;;;;3.60;0.68;;;;;;;6.60;96.93;101177.31;10579827;27;20049;-84
2023/01/31 15:15:02;;;;;;;0.85;0.30;;;;;;;6.57;96.09;101190.22;10390384;28;20685;-84
2023/01/31 15:20:47;;;;;;;0.52;0.32;;;;;;;6.59;95.34;101183.34;10415757;28;20099;-83
2023/01/31 15:26:17;;;;;;;1.17;0.80;;;;;;;6.61;94.55;101199.91;10372971;28;20075;-85
2023/01/31 15:38:00;;;;;;;0.77;0.55;;;;;;;6.59;92.69;101211.97;10371168;28;19978;-85
2023/01/31 15:44:25;;;;;;;6.90;1.63;;;;;;;6.53;92.32;101202.19;10232561;28;20094;-86
2023/01/31 15:50:14;;;;;;;6.30;0.90;;;;;;;6.51;91.60;101230.75;10270864;28;20473;-86
2023/01/31 15:56:38;;;;;;;;;;;;;;;6.48;91.24;101228.00;10417715;28;20127;-87
2023/01/31 16:02:20;;;;;;;0.60;0.35;;;;;;;6.48;90.51;101215.00;10391381;28;20015;-86
2023/01/31 16:07:34;;;;;;;2.47;0.47;;;;;;;6.44;90.02;101230.44;10418666;28;20554;-87
2023/01/31 16:12:57;;;;;;;2.03;1.27;;;;;;;6.39;89.33;101221.56;10455056;27;20049;-88
2023/01/31 16:24:10;;;;;;;1.83;1.02;;;;;;;6.25;88.78;101213.19;10562798;27;20047;-86
2023/01/31 16:29:16;;;;;;;1.85;0.65;;;;;;;6.20;88.66;101218.22;10588969;27;20453;-86
2023/01/31 16:34:30;;;;;;;4.28;0.90;;;;;;;6.18;88.17;101215.56;10602457;27;20047;-84
2023/01/31 16:40:29;;;;;;;8.20;1.45;;;;;;;6.09;88.02;101229.88;10552243;27;20051;-88
2023/01/31 16:47:23;;;;;;;1.35;0.82;;;;;;;6.10;87.45;101231.66;10569010;27;20122;-87
2023/01/31 16:53:25;;;;;;;0.60;0.43;;;;;;;5.93;87.04;101223.06;10556036;27;20432;-89
2023/01/31 16:59:52;;;;;;;1.00;0.63;;;;;;;5.94;86.75;101243.06;10580730;27;20051;-87
2023/01/31 17:05:51;;;;;;;0.15;0.15;;;;;;;5.88;86.31;101251.47;10577340;27;20043;-87
2023/01/31 17:10:55;;;;;;;2.95;0.95;;;;;;;5.81;86.13;101265.94;10558769;27;20175;-87
2023/01/31 17:16:01;;;;;;;3.35;1.50;;;;;;;5.79;85.84;101288.34;10590973;27;20391;-88
2023/01/31 17:21:05;;;;;;;2.03;1.33;;;;;;;5.84;85.72;101289.44;10619476;27;20430;-87
2023/01/31 17:26:14;;;;;;;5.90;0.73;;;;;;;5.72;85.29;101281.13;10595662;27;20488;-87
2023/01/31 17:31:19;;;;;;;3.33;0.73;;;;;;;5.60;85.24;101275.34;10602791;27;20046;-85
2023/01/31 17:36:21;;;;;;;3.40;0.95;;;;;;;5.48;85.07;101286.97;10611002;27;20452;-86
2023/01/31 17:41:23;;;;;;;4.28;1.48;;;;;;;5.44;84.91;101291.97;10612988;27;20050;-85
2023/01/31 17:46:27;;;;;;;3.22;0.80;;;;;;;5.37;84.78;101306.34;10588945;27;20043;-86
2023/01/31 17:51:29;;;;;;;1.98;0.60;;;;;;;5.32;84.47;101315.66;10589101;27;20414;-86
2023/01/31 17:56:30;;;;;;;5.80;1.00;;;;;;;5.26;84.23;101320.56;10589059;27;20545;-86
2023/01/31 18:01:32;;;;;;;10.15;1.92;;;;;;;5.25;84.20;101309.25;10607634;27;20035;-88
2023/01/31 18:06:35;;;;;;;0.65;0.63;;;;;;;5.24;83.60;101319.56;10606676;27;20043;-86
2023/01/31 18:11:42;;;;;;;1.88;0.43;;;;;;;5.27;83.26;101301.56;10566740;27;20050;-87
2023/01/31 18:16:44;;;;;;;4.47;1.65;;;;;;;5.24;82.75;101309.19;10606806;27;20495;-86
2023/01/31 18:21:50;;;;;;;5.45;1.75;;;;;;;5.22;82.65;101326.41;10606179;27;20080;-85
2023/01/31 18:26:56;;;;;;;6.20;2.25;;;;;;;5.24;82.10;101316.97;10606088;27;20297;-86
2023/01/31 18:32:01;;;;;;;4.47;0.90;;;;;;;5.33;81.51;101320.03;10588502;27;20501;-86
2023/01/31 18:37:09;;;;;;;9.25;1.30;;;;;;;5.26;81.33;101324.03;10588677;27;20042;-85
2023/01/31 18:42:10;;;;;;;1.98;0.85;;;;;;;5.27;81.33;101324.94;10608894;27;20031;-84
2023/01/31 18:47:14;;;;;;;2.53;1.38;;;;;;;5.19;81.31;101315.88;10606969;27;20047;-85
2023/01/31 18:52:16;;;;;;;0.68;0.38;;;;;;;5.14;81.38;101321.75;10581170;28;20039;-85
2023/01/31 18:57:17;;;;;;;2.72;1.95;;;;;;;5.09;81.55;101310.25;10591290;28;20051;-85
2023/01/31 19:02:20;;;;;;;2.33;1.33;;;;;;;5.03;81.67;101314.25;10615243;27;20036;-84
2023/01/31 19:07:21;;;;;;;1.10;0.38;;;;;;;5.03;82.19;101316.84;10613710;28;20079;-84
2023/01/31 19:12:23;;;;;;;3.38;1.27;;;;;;;5.00;81.80;101321.88;10589568;28;20522;-84
2023/01/31 19:17:24;;;;;;;1.05;0.63;;;;;;;5.00;81.86;101316.69;10608550;28;20061;-85
2023/01/31 19:22:27;;;;;;;3.95;1.15;;;;;;;4.93;82.04;101319.00;10612997;28;20047;-85
2023/01/31 19:27:29;;;;;;;1.05;0.70;;;;;;;4.84;81.78;101317.69;10594827;27;20046;-84
2023/01/31 19:32:30;;;;;;;1.65;1.42;;;;;;;4.77;81.96;101314.78;10590799;27;20035;-83
2023/01/31 19:37:32;;;;;;;2.90;1.13;;;;;;;4.75;82.24;101325.91;10612765;27;20054;-83
2023/01/31 19:42:35;;;;;;;0.82;0.75;;;;;;;4.78;81.72;101321.75;10612430;27;20051;-84
2023/01/31 19:47:37;;;;;;;15.90;5.45;;;;;;;4.77;81.70;101324.25;10597958;27;20045;-83
2023/01/31 19:52:38;;;;;;;8.50;3.50;;;;;;;4.67;81.68;101333.31;10619955;27;20050;-83
2023/01/31 19:57:40;;;;;;;6.65;0.75;;;;;;;4.67;81.74;101328.13;10599630;27;20043;-83
2023/01/31 20:02:41;;;;;;;6.07;1.00;;;;;;;4.66;81.63;101339.31;10621733;27;20039;-83
2023/01/31 20:07:43;;;;;;;2.65;1.13;;;;;;;4.64;81.63;101340.03;10604226;27;20130;-84
2023/01/31 20:12:45;;;;;;;0.55;0.28;;;;;;;4.55;81.75;101319.72;10601415;27;20379;-84
2023/01/31 20:17:46;;;;;;;0.20;0.20;;;;;;;4.51;81.88;101320.38;10620629;27;20085;-82
2023/01/31 20:22:48;;;;;;;1.85;1.02;;;;;;;4.49;82.09;101320.31;10621880;27;20108;-83
2023/01/31 20:27:49;;;;;;;0.80;0.70;;;;;;;4.53;82.52;101323.94;10600453;27;20050;-82
2023/01/31 20:32:51;;;;;;;1.95;1.30;;;;;;;4.55;82.27;101324.91;10621229;27;20509;-82
2023/01/31 20:37:53;;;;;;;2.95;1.20;;;;;;;4.52;82.26;101324.75;10619002;27;20050;-82
2023/01/31 20:42:54;;;;;;;8.20;1.20;;;;;;;4.51;82.51;101325.56;10594642;27;20236;-84
2023/01/31 20:47:57;;;;;;;2.72;1.17;;;;;;;4.51;82.47;101315.19;10615389;27;20049;-82
2023/01/31 20:52:59;;;;;;;0.20;0.20;;;;;;;4.55;82.46;101317.13;10620204;27;20533;-82
2023/01/31 20:58:00;;;;;;;1.02;0.38;;;;;;;4.55;82.79;101322.31;10619888;27;20043;-82
2023/01/31 21:03:02;;;;;;;0.57;0.32;;;;;;;4.62;82.44;101323.50;10618653;27;20039;-82
2023/01/31 21:08:04;;;;;;;6.97;2.20;;;;;;;4.60;82.29;101326.03;10599682;27;20035;-83
2023/01/31 21:13:07;;;;;;;0.75;0.60;;;;;;;4.61;82.30;101327.81;10588235;27;20035;-82
2023/01/31 21:18:09;;;;;;;2.22;0.85;;;;;;;4.58;82.19;101319.88;10611504;27;20069;-82
2023/01/31 21:23:11;;;;;;;1.85;0.95;;;;;;;4.67;82.12;101322.03;10576772;27;20032;-82
2023/01/31 21:28:12;;;;;;;4.03;0.85;;;;;;;4.68;82.09;101329.88;10609819;27;20092;-81
2023/01/31 21:33:14;;;;;;;0.88;0.50;;;;;;;4.66;82.12;101334.13;10610299;27;20050;-81
2023/01/31 21:38:15;;;;;;;6.72;1.80;;;;;;;4.68;82.11;101342.84;10609980;27;20038;-82
2023/01/31 21:43:17;;;;;;;2.17;1.10;;;;;;;4.73;81.93;101337.91;10610737;27;20043;-81
2023/01/31 21:48:30;;;;;;;1.65;0.73;;;;;;;4.72;82.03;101338.72;10592539;27;20090;-81
2023/01/31 21:53:33;;;;;;;4.47;0.75;;;;;;;4.70;82.01;101330.88;10603080;27;20539;-81
2023/01/31 21:58:36;;;;;;;3.40;0.77;;;;;;;4.65;81.83;101332.31;10589435;27;20123;-81
2023/01/31 22:03:41;;;;;;;5.43;0.68;;;;;;;4.63;82.03;101331.38;10590136;27;20055;-81
2023/01/31 22:08:43;;;;;;;0.55;0.28;;;;;;;4.57;81.97;101320.69;10591309;27;20047;-81
2023/01/31 22:13:46;;;;;;;3.60;1.13;;;;;;;4.48;81.96;101313.34;10608192;27;20047;-81
2023/01/31 22:18:47;;;;;;;9.48;0.82;;;;;;;4.43;82.01;101323.47;10589707;27;20043;-81
2023/01/31 22:23:52;;;;;;;0.20;0.20;;;;;;;4.35;82.13;101321.31;10589563;27;20051;-81
2023/01/31 22:28:57;;;;;;;0.43;0.30;;;;;;;4.28;82.25;101316.59;10589447;27;20054;-80
2023/01/31 22:33:59;;;;;;;2.50;1.08;;;;;;;4.21;82.31;101320.59;10608571;27;20039;-81
2023/01/31 22:39:01;;;;;;;0.52;0.50;;;;;;;4.14;82.52;101328.88;10606765;27;20035;-80
2023/01/31 22:44:02;;;;;;;2.85;1.05;;;;;;;4.11;82.42;101339.09;10588650;27;20031;-80
2023/01/31 22:49:04;;;;;;;7.38;1.17;;;;;;;4.10;82.60;101329.50;10606805;28;20039;-80
2023/01/31 22:54:05;;;;;;;0.75;0.63;;;;;;;4.11;82.85;101318.34;10608016;28;20046;-80
2023/01/31 22:59:08;;;;;;;3.10;1.52;;;;;;;4.14;82.98;101313.31;10608412;28;20062;-80
2023/01/31 23:04:10;;;;;;;1.35;0.35;;;;;;;4.15;83.05;101320.28;10608385;28;20411;-80
2023/01/31 23:09:12;;;;;;;0.28;0.28;;;;;;;4.15;83.22;101307.34;10593771;27;20036;-80
2023/01/31 23:14:13;;;;;;;0.35;0.35;;;;;;;4.18;83.38;101315.25;10616937;27;20038;-80
2023/01/31 23:19:15;;;;;;;1.67;1.50;;;;;;;4.24;83.41;101311.28;10616187;27;20047;-80
2023/01/31 23:24:17;;;;;;;2.42;1.10;;;;;;;4.27;83.57;101305.34;10597424;27;20103;-80
2023/01/31 23:29:19;;;;;;;2.28;0.90;;;;;;;4.29;83.54;101308.03;10596688;27;20049;-80
2023/01/31 23:34:21;;;;;;;3.78;1.00;;;;;;;4.32;83.63;101301.28;10598288;27;20046;-79
2023/01/31 23:39:22;;;;;;;1.10;1.00;;;;;;;4.35;83.74;101293.66;10614237;27;20446;-80
2023/01/31 23:44:24;;;;;;;1.27;0.77;;;;;;;4.37;83.71;101284.28;10615002;27;20050;-80
2023/01/31 23:49:25;;;;;;;1.27;0.60;;;;;;;4.36;83.74;101286.78;10614434;27;20402;-80
2023/01/31 23:54:27;;;;;;;2.88;1.35;;;;;;;4.38;83.67;101278.28;10597011;27;20039;-80
2023/01/31 23:59:29;;;;;;;0.55;0.32;;;;;;;4.42;83.79;101280.19;10597566;27;20054;-79
